Time;durP1;ratioP1;P1;durP2;ratioP2;P2;SDS_P1;SDS_P2;PMS_P1;PMS_P2;Temp;Humidity;BMP_temperature;BMP_pressure;BME280_temperature;BME280_humidity;BME280_pressure;Samples;Min_cycle;Max_cycle;Signal;HPM_P1;HPM_P2
2022/10/19 00:01:04;;;;;;;8.07;3.87;;;11.40;99.90;;;;;;5023330;28;20220;-56
2022/10/19 00:03:31;;;;;;;8.70;3.50;;;11.40;99.90;;;;;;5046516;28;20205;-56
2022/10/19 00:05:59;;;;;;;5.50;3.33;;;11.40;99.90;;;;;;5051892;28;21143;-55
2022/10/19 00:08:26;;;;;;;8.83;3.10;;;11.40;99.90;;;;;;5056790;28;20295;-57
2022/10/19 00:10:53;;;;;;;7.67;4.33;;;11.30;99.90;;;;;;5048581;28;20233;-54
2022/10/19 00:13:19;;;;;;;9.23;4.00;;;11.30;99.90;;;;;;5045468;28;20583;-55
2022/10/19 00:15:46;;;;;;;7.90;3.80;;;11.20;99.90;;;;;;5051950;28;20325;-55
2022/10/19 00:18:13;;;;;;;8.17;3.87;;;11.20;99.90;;;;;;5048116;28;20203;-55
2022/10/19 00:20:39;;;;;;;10.97;4.30;;;11.20;99.90;;;;;;5050380;28;20204;-55
2022/10/19 00:23:06;;;;;;;6.23;3.80;;;11.10;99.90;;;;;;5045727;28;20650;-56
2022/10/19 00:25:33;;;;;;;7.37;3.80;;;11.20;99.90;;;;;;5044060;28;20202;-55
2022/10/19 00:28:00;;;;;;;6.63;3.23;;;11.30;99.90;;;;;;5044070;28;21098;-56
2022/10/19 00:30:27;;;;;;;9.00;3.87;;;11.30;99.90;;;;;;5047605;28;20207;-55
2022/10/19 00:32:53;;;;;;;7.80;3.60;;;11.30;99.90;;;;;;5047852;28;20207;-55
2022/10/19 00:35:20;;;;;;;11.37;3.47;;;11.20;99.90;;;;;;5048155;28;20700;-54
2022/10/19 00:37:47;;;;;;;8.53;3.90;;;11.20;99.90;;;;;;5043353;28;20212;-54
2022/10/19 00:40:14;;;;;;;7.77;4.43;;;11.10;99.90;;;;;;5043095;28;20253;-55
2022/10/19 00:42:40;;;;;;;7.90;3.50;;;11.10;99.90;;;;;;5043649;28;20203;-55
2022/10/19 00:45:15;;;;;;;6.50;4.37;;;11.00;99.90;;;;;;5044455;28;20900;-56
2022/10/19 00:47:43;;;;;;;10.17;3.57;;;11.00;99.90;;;;;;5041375;28;20209;-55
2022/10/19 00:50:13;;;;;;;10.37;3.57;;;10.90;99.90;;;;;;5044275;28;20245;-55
2022/10/19 00:52:40;;;;;;;6.43;3.70;;;11.00;99.90;;;;;;5047761;28;20551;-55
2022/10/19 00:55:08;;;;;;;8.83;3.90;;;11.00;99.90;;;;;;5043092;28;20225;-55
2022/10/19 00:57:35;;;;;;;5.93;3.17;;;11.00;99.90;;;;;;5046095;28;20201;-56
2022/10/19 01:00:07;;;;;;;7.63;3.20;;;10.90;99.90;;;;;;5043424;28;20817;-55
2022/10/19 01:02:34;;;;;;;10.47;3.43;;;10.90;99.90;;;;;;5045122;28;20568;-55
2022/10/19 01:05:03;;;;;;;11.63;3.17;;;10.90;99.90;;;;;;5045385;28;20217;-55
2022/10/19 01:07:30;;;;;;;5.70;3.47;;;10.90;99.90;;;;;;5045373;28;20197;-54
2022/10/19 01:09:59;;;;;;;8.17;3.23;;;10.90;99.90;;;;;;5044111;28;20319;-55
2022/10/19 01:12:53;;;;;;;6.17;3.37;;;10.90;99.90;;;;;;5050126;28;20202;-54
2022/10/19 01:15:46;;;;;;;7.93;3.67;;;10.90;99.90;;;;;;5059719;28;20206;-57
2022/10/19 01:18:48;;;;;;;6.47;3.67;;;10.90;99.90;;;;;;5041088;28;20460;-55
2022/10/19 01:21:29;;;;;;;6.73;3.27;;;10.90;99.90;;;;;;5042814;28;20203;-55
2022/10/19 01:24:31;;;;;;;5.47;2.80;;;10.80;99.90;;;;;;5044523;28;20207;-55
2022/10/19 01:27:44;;;;;;;11.57;3.43;;;10.80;99.90;;;;;;5044279;28;20287;-55
2022/10/19 01:30:16;;;;;;;6.07;3.00;;;10.80;99.90;;;;;;5031338;28;20211;-55
2022/10/19 01:33:00;;;;;;;4.33;2.60;;;10.80;99.90;;;;;;5043803;28;20200;-55
2022/10/19 01:35:31;;;;;;;7.53;3.43;;;10.80;99.90;;;;;;5047750;28;20563;-55
2022/10/19 01:38:03;;;;;;;7.10;3.40;;;10.70;99.90;;;;;;5043491;28;20214;-55
2022/10/19 01:40:41;;;;;;;8.63;4.30;;;10.60;99.90;;;;;;5043419;28;20302;-55
2022/10/19 01:43:11;;;;;;;6.40;3.50;;;10.60;99.90;;;;;;5042505;28;20286;-55
2022/10/19 01:46:13;;;;;;;7.00;3.07;;;10.60;99.90;;;;;;5043430;28;20650;-55
2022/10/19 01:48:45;;;;;;;8.23;3.40;;;10.60;99.90;;;;;;5041104;28;20904;-56
2022/10/19 01:51:18;;;;;;;6.47;3.40;;;10.60;99.90;;;;;;5042138;28;20254;-55
2022/10/19 01:53:49;;;;;;;8.53;3.60;;;10.60;99.90;;;;;;5043167;28;20200;-56
2022/10/19 01:56:19;;;;;;;13.80;3.67;;;10.60;99.90;;;;;;5043018;28;20211;-56
2022/10/19 01:58:47;;;;;;;5.87;3.20;;;10.60;99.90;;;;;;5056978;28;20658;-55
2022/10/19 02:01:18;;;;;;;9.67;4.17;;;10.60;99.90;;;;;;5042919;28;20640;-55
2022/10/19 02:03:46;;;;;;;8.07;3.73;;;10.60;99.90;;;;;;5039262;28;20204;-55
2022/10/19 02:06:13;;;;;;;15.07;6.00;;;10.60;99.90;;;;;;5040821;28;20567;-55
2022/10/19 02:08:45;;;;;;;6.67;3.27;;;10.60;99.90;;;;;;5044764;28;20210;-56
2022/10/19 02:11:11;;;;;;;11.70;3.70;;;10.50;99.90;;;;;;5041196;28;20843;-55
2022/10/19 02:13:39;;;;;;;6.83;3.13;;;10.50;99.90;;;;;;5041564;28;20196;-55
2022/10/19 02:16:12;;;;;;;8.70;3.47;;;10.60;99.90;;;;;;5040767;28;20207;-55
2022/10/19 02:18:44;;;;;;;8.10;3.80;;;10.50;99.90;;;;;;5043751;28;20670;-55
2022/10/19 02:21:11;;;;;;;7.43;3.60;;;10.40;99.90;;;;;;5043797;28;20203;-55
2022/10/19 02:23:38;;;;;;;5.87;3.17;;;10.40;99.90;;;;;;5041602;28;20650;-55
2022/10/19 02:26:05;;;;;;;10.77;3.67;;;10.40;99.90;;;;;;5038437;28;20200;-55
2022/10/19 02:28:32;;;;;;;7.80;3.53;;;10.40;99.90;;;;;;5041314;28;20207;-55
2022/10/19 02:31:00;;;;;;;7.33;3.73;;;10.40;99.90;;;;;;5038233;28;20289;-55
2022/10/19 02:33:28;;;;;;;8.37;4.03;;;10.30;99.90;;;;;;5039424;28;20628;-54
2022/10/19 02:35:56;;;;;;;9.03;3.57;;;10.30;99.90;;;;;;5044024;28;20568;-55
2022/10/19 02:38:23;;;;;;;8.20;3.27;;;10.30;99.90;;;;;;5043760;28;20199;-54
2022/10/19 02:40:58;;;;;;;10.10;3.73;;;10.30;99.90;;;;;;5039146;28;20218;-57
2022/10/19 02:43:27;;;;;;;5.37;3.37;;;10.20;99.90;;;;;;5042583;28;20211;-55
2022/10/19 02:46:13;;;;;;;12.07;3.90;;;10.20;99.90;;;;;;5045290;28;20192;-57
2022/10/19 02:48:41;;;;;;;6.90;3.47;;;10.30;99.90;;;;;;5048972;28;20591;-54
2022/10/19 02:51:36;;;;;;;5.70;3.30;;;10.30;99.90;;;;;;5038903;28;20713;-56
2022/10/19 02:54:05;;;;;;;10.60;3.50;;;10.20;99.90;;;;;;5036982;28;20438;-56
2022/10/19 02:56:33;;;;;;;9.27;3.60;;;10.10;99.90;;;;;;5038918;28;20206;-54
2022/10/19 02:59:01;;;;;;;11.10;3.87;;;10.20;99.90;;;;;;5039949;28;20237;-55
2022/10/19 03:01:28;;;;;;;9.97;3.93;;;10.30;99.90;;;;;;5042303;28;20206;-54
2022/10/19 03:03:55;;;;;;;6.50;3.57;;;10.10;99.90;;;;;;5038632;28;20195;-54
2022/10/19 03:06:21;;;;;;;7.70;3.63;;;10.20;99.90;;;;;;5040931;28;20191;-55
2022/10/19 03:08:48;;;;;;;5.20;3.20;;;10.10;99.90;;;;;;5041607;28;20226;-55
2022/10/19 03:11:15;;;;;;;6.17;3.73;;;10.20;99.90;;;;;;5034887;28;20223;-56
2022/10/19 03:13:42;;;;;;;7.60;3.23;;;10.10;99.90;;;;;;5042104;28;20198;-55
2022/10/19 03:16:10;;;;;;;8.23;3.33;;;10.10;99.90;;;;;;5039130;28;20614;-55
2022/10/19 03:18:38;;;;;;;5.47;3.10;;;10.10;99.90;;;;;;5037325;28;20212;-55
2022/10/19 03:21:07;;;;;;;6.57;3.20;;;10.10;99.90;;;;;;5039153;28;20621;-55
2022/10/19 03:23:34;;;;;;;9.97;3.53;;;10.00;99.90;;;;;;5043260;28;20191;-56
2022/10/19 03:26:01;;;;;;;9.07;3.40;;;10.00;99.90;;;;;;5039738;28;20192;-56
2022/10/19 03:28:28;;;;;;;5.70;3.67;;;10.00;99.90;;;;;;5043132;28;20209;-55
2022/10/19 03:30:55;;;;;;;6.80;3.33;;;10.10;99.90;;;;;;5036672;28;20645;-55
2022/10/19 03:33:22;;;;;;;8.37;3.60;;;10.10;99.90;;;;;;5038403;28;20660;-56
2022/10/19 03:36:21;;;;;;;11.07;3.63;;;10.00;99.90;;;;;;5038460;28;20200;-55
2022/10/19 03:38:53;;;;;;;7.17;3.60;;;10.00;99.90;;;;;;5049912;28;20201;-55
2022/10/19 03:41:22;;;;;;;6.03;3.50;;;10.00;99.90;;;;;;5044219;28;20194;-54
2022/10/19 03:43:49;;;;;;;10.47;3.90;;;10.00;99.90;;;;;;5043401;28;20196;-55
2022/10/19 03:46:16;;;;;;;8.60;3.57;;;10.00;99.90;;;;;;5044759;28;20323;-57
2022/10/19 03:48:43;;;;;;;8.33;3.43;;;10.00;99.90;;;;;;5045046;28;20206;-56
2022/10/19 03:51:16;;;;;;;6.20;3.47;;;9.90;99.90;;;;;;5042382;28;20232;-55
2022/10/19 03:53:44;;;;;;;6.40;2.93;;;9.90;99.90;;;;;;5049924;28;20274;-55
2022/10/19 03:56:16;;;;;;;8.87;3.40;;;10.00;99.90;;;;;;5045045;28;20204;-55
2022/10/19 03:58:45;;;;;;;8.33;3.03;;;9.90;99.90;;;;;;5046483;28;20195;-55
2022/10/19 04:01:18;;;;;;;9.47;4.00;;;9.90;99.90;;;;;;5050377;28;20225;-55
2022/10/19 04:03:45;;;;;;;7.73;3.60;;;10.00;99.90;;;;;;5047327;28;20199;-56
2022/10/19 04:06:15;;;;;;;9.73;3.30;;;9.90;99.90;;;;;;5046021;28;20213;-55
2022/10/19 04:08:48;;;;;;;5.20;3.33;;;9.90;99.90;;;;;;5040599;28;20211;-55
2022/10/19 04:11:17;;;;;;;7.83;3.43;;;9.90;99.90;;;;;;5045281;28;20675;-55
2022/10/19 04:13:48;;;;;;;6.73;3.10;;;9.90;99.90;;;;;;5046045;28;20220;-55
2022/10/19 04:16:15;;;;;;;7.50;2.90;;;10.00;99.90;;;;;;5043167;28;20196;-55
2022/10/19 04:18:42;;;;;;;8.13;3.70;;;9.90;99.90;;;;;;5042181;28;20251;-55
2022/10/19 04:21:23;;;;;;;4.83;3.10;;;9.80;99.90;;;;;;5048549;28;20216;-56
2022/10/19 04:23:52;;;;;;;9.40;4.37;;;9.80;99.90;;;;;;5049146;28;20533;-55
2022/10/19 04:26:20;;;;;;;10.93;4.33;;;9.80;99.90;;;;;;5046617;28;20200;-56
2022/10/19 04:28:46;;;;;;;6.80;3.47;;;9.70;99.90;;;;;;5042745;28;20631;-55
2022/10/19 04:31:13;;;;;;;8.23;3.87;;;9.80;99.90;;;;;;5045194;28;21249;-54
2022/10/19 04:33:41;;;;;;;8.83;3.40;;;9.80;99.90;;;;;;5046437;28;20559;-56
2022/10/19 04:36:10;;;;;;;4.60;3.10;;;9.70;99.90;;;;;;5047699;28;20232;-56
2022/10/19 04:38:38;;;;;;;4.57;3.23;;;9.70;99.90;;;;;;5043574;28;20209;-55
2022/10/19 04:41:07;;;;;;;6.20;3.20;;;9.80;99.90;;;;;;5049718;28;20209;-55
2022/10/19 04:43:34;;;;;;;6.67;3.40;;;9.70;99.90;;;;;;5049756;28;20196;-56
2022/10/19 04:46:10;;;;;;;8.63;3.43;;;9.70;99.90;;;;;;5050471;28;20192;-56
2022/10/19 04:48:38;;;;;;;5.83;3.13;;;9.70;99.90;;;;;;5049201;28;20216;-56
2022/10/19 04:51:06;;;;;;;9.60;3.20;;;9.70;99.90;;;;;;5050812;28;20727;-55
2022/10/19 04:53:36;;;;;;;7.60;3.23;;;9.60;99.90;;;;;;5051432;28;20204;-56
2022/10/19 04:56:05;;;;;;;7.17;3.00;;;9.60;99.90;;;;;;5047900;28;20202;-56
2022/10/19 04:58:32;;;;;;;6.33;3.80;;;9.60;99.90;;;;;;5048879;28;20306;-56
2022/10/19 05:00:59;;;;;;;7.63;3.77;;;9.60;99.90;;;;;;5050055;28;20214;-55
2022/10/19 05:03:25;;;;;;;7.27;3.57;;;9.60;99.90;;;;;;5049915;28;20202;-55
2022/10/19 05:05:52;;;;;;;6.30;3.50;;;9.60;99.90;;;;;;5048061;28;20649;-55
2022/10/19 05:08:19;;;;;;;6.23;3.40;;;9.60;99.90;;;;;;5048195;28;20210;-55
2022/10/19 05:10:46;;;;;;;6.50;3.77;;;9.60;99.90;;;;;;5044678;28;20223;-56
2022/10/19 05:13:13;;;;;;;5.83;3.17;;;9.60;99.90;;;;;;5046898;28;20572;-56
2022/10/19 05:15:40;;;;;;;9.73;4.00;;;9.60;99.90;;;;;;5045525;28;20212;-56
2022/10/19 05:18:07;;;;;;;7.40;4.20;;;9.50;99.90;;;;;;5042041;28;20293;-55
2022/10/19 05:20:33;;;;;;;5.37;3.77;;;9.60;99.90;;;;;;5045485;28;20213;-56
2022/10/19 05:23:00;;;;;;;8.30;4.20;;;9.60;99.90;;;;;;5044183;28;20288;-55
2022/10/19 05:25:33;;;;;;;7.30;3.93;;;9.60;99.90;;;;;;5043830;28;20188;-55
2022/10/19 05:27:59;;;;;;;9.80;4.33;;;9.60;99.90;;;;;;5041285;28;20198;-56
2022/10/19 05:30:26;;;;;;;5.73;4.13;;;9.60;99.90;;;;;;5043886;28;20289;-55
2022/10/19 05:32:53;;;;;;;5.83;3.77;;;9.50;99.90;;;;;;5043225;28;20196;-55
2022/10/19 05:35:20;;;;;;;8.57;4.17;;;9.50;99.90;;;;;;5042017;28;20519;-55
2022/10/19 05:37:52;;;;;;;5.40;4.03;;;9.50;99.90;;;;;;5042226;28;20198;-56
2022/10/19 05:40:19;;;;;;;8.03;3.87;;;9.50;99.90;;;;;;5039026;28;20303;-56
2022/10/19 05:42:46;;;;;;;8.13;3.83;;;9.50;99.90;;;;;;5044529;28;20194;-55
2022/10/19 05:45:13;;;;;;;7.43;4.13;;;9.60;99.90;;;;;;5041849;28;20196;-55
2022/10/19 05:47:40;;;;;;;8.90;4.20;;;9.50;99.90;;;;;;5043202;28;20699;-55
2022/10/19 05:50:07;;;;;;;6.43;3.47;;;9.50;99.90;;;;;;5038867;28;20726;-57
2022/10/19 05:52:34;;;;;;;6.97;3.77;;;9.60;99.90;;;;;;5046512;28;20206;-56
2022/10/19 05:55:00;;;;;;;5.53;3.47;;;9.50;99.90;;;;;;5042483;28;20196;-55
2022/10/19 05:57:27;;;;;;;6.90;3.70;;;9.60;99.90;;;;;;5048313;28;20200;-56
2022/10/19 05:59:57;;;;;;;8.03;3.50;;;9.60;99.90;;;;;;5044463;28;20895;-54
2022/10/19 06:02:24;;;;;;;5.03;3.50;;;9.60;99.90;;;;;;5033003;28;20241;-55
2022/10/19 06:04:50;;;;;;;9.73;3.73;;;9.60;99.90;;;;;;5042806;28;20204;-54
2022/10/19 06:07:17;;;;;;;6.07;4.00;;;9.60;99.90;;;;;;5042450;28;20662;-54
2022/10/19 06:09:44;;;;;;;6.10;4.07;;;9.50;99.90;;;;;;5043300;28;20221;-54
2022/10/19 06:12:11;;;;;;;7.30;4.30;;;9.50;99.90;;;;;;5040574;28;20754;-54
2022/10/19 06:14:41;;;;;;;5.73;3.63;;;9.50;99.90;;;;;;5042146;28;20294;-54
2022/10/19 06:17:08;;;;;;;6.50;4.07;;;9.50;99.90;;;;;;5034760;28;20279;-56
2022/10/19 06:19:35;;;;;;;9.20;4.17;;;9.60;99.90;;;;;;5043066;28;20201;-56
2022/10/19 06:22:02;;;;;;;8.47;4.70;;;9.50;99.90;;;;;;5045280;28;20536;-56
2022/10/19 06:24:29;;;;;;;5.47;3.80;;;9.50;99.90;;;;;;5043384;28;20941;-55
2022/10/19 06:26:56;;;;;;;6.53;3.80;;;9.40;99.90;;;;;;5040105;28;20196;-56
2022/10/19 06:29:22;;;;;;;7.27;4.37;;;9.50;99.90;;;;;;5043892;28;20201;-56
2022/10/19 06:31:50;;;;;;;6.90;4.00;;;9.50;99.90;;;;;;5036093;28;20200;-55
2022/10/19 06:34:17;;;;;;;6.13;4.20;;;9.40;99.90;;;;;;4680794;28;10000444;-56
2022/10/19 06:36:44;;;;;;;9.60;4.63;;;9.40;99.90;;;;;;5032718;28;20228;-55
2022/10/19 06:39:11;;;;;;;10.20;4.23;;;9.40;99.90;;;;;;5038179;28;20205;-55
2022/10/19 06:41:37;;;;;;;5.53;3.90;;;9.50;99.90;;;;;;5038597;28;20211;-56
2022/10/19 06:44:04;;;;;;;9.80;4.67;;;9.50;99.90;;;;;;5050452;28;20192;-55
2022/10/19 06:46:32;;;;;;;10.23;4.97;;;9.50;99.90;;;;;;5040838;28;20196;-57
2022/10/19 06:49:00;;;;;;;9.03;4.23;;;9.50;99.90;;;;;;5044961;28;20205;-56
2022/10/19 06:51:29;;;;;;;5.27;4.10;;;9.60;99.90;;;;;;5046604;28;20237;-55
2022/10/19 06:53:56;;;;;;;8.17;4.57;;;9.60;99.90;;;;;;5036186;28;20201;-55
2022/10/19 06:56:24;;;;;;;7.17;4.87;;;9.60;99.90;;;;;;5042210;28;20197;-56
2022/10/19 06:58:51;;;;;;;7.07;4.47;;;9.70;99.90;;;;;;5036133;28;20653;-56
2022/10/19 07:01:18;;;;;;;5.60;4.47;;;9.70;99.90;;;;;;5038595;28;20897;-56
2022/10/19 07:03:46;;;;;;;8.77;4.20;;;9.70;99.90;;;;;;5042071;28;20219;-55
2022/10/19 07:06:13;;;;;;;9.33;4.70;;;9.80;99.90;;;;;;5039281;28;20201;-56
2022/10/19 07:08:41;;;;;;;8.83;4.83;;;9.90;99.90;;;;;;5040801;28;20683;-55
2022/10/19 07:11:16;;;;;;;8.20;4.80;;;10.10;99.90;;;;;;5049980;28;20695;-56
2022/10/19 07:13:43;;;;;;;7.90;4.80;;;10.20;99.90;;;;;;5042384;28;20210;-55
2022/10/19 07:16:13;;;;;;;8.13;4.47;;;10.40;99.90;;;;;;5035946;28;20200;-56
2022/10/19 07:18:46;;;;;;;6.93;4.60;;;10.50;99.90;;;;;;5040481;28;20243;-56
2022/10/19 07:21:15;;;;;;;7.13;4.70;;;10.70;99.90;;;;;;5038097;28;20316;-56
2022/10/19 07:23:43;;;;;;;8.63;4.07;;;10.70;99.90;;;;;;5035227;28;20209;-56
2022/10/19 07:26:13;;;;;;;5.20;3.80;;;10.90;99.90;;;;;;5033031;28;20205;-55
2022/10/19 07:28:41;;;;;;;7.10;3.93;;;10.80;99.90;;;;;;5041434;28;20200;-56
2022/10/19 07:31:12;;;;;;;8.43;4.30;;;10.80;99.90;;;;;;5040171;28;20789;-56
2022/10/19 07:33:38;;;;;;;6.37;4.23;;;10.90;99.90;;;;;;5041057;28;20204;-56
2022/10/19 07:36:08;;;;;;;5.60;3.93;;;11.00;99.90;;;;;;5038747;28;20197;-56
2022/10/19 07:38:36;;;;;;;6.33;3.67;;;11.20;99.90;;;;;;5031210;28;20216;-56
2022/10/19 07:41:08;;;;;;;5.60;3.57;;;11.40;99.90;;;;;;5039327;28;20215;-56
2022/10/19 07:43:35;;;;;;;7.37;3.70;;;11.50;99.90;;;;;;5041739;28;20196;-56
2022/10/19 07:46:16;;;;;;;4.87;3.83;;;11.60;99.90;;;;;;5049637;28;20652;-56
2022/10/19 07:48:43;;;;;;;4.07;3.50;;;11.60;99.90;;;;;;5048576;28;20830;-55
2022/10/19 07:51:12;;;;;;;7.37;3.97;;;11.60;99.90;;;;;;5044857;28;20708;-56
2022/10/19 07:53:39;;;;;;;6.10;3.40;;;11.50;99.90;;;;;;5048175;28;20203;-60
2022/10/19 07:56:11;;;;;;;5.57;3.43;;;11.70;99.90;;;;;;5045457;28;20216;-55
2022/10/19 07:58:38;;;;;;;7.23;2.93;;;11.80;99.90;;;;;;5040399;28;21846;-55
2022/10/19 08:01:07;;;;;;;7.23;2.93;;;12.10;99.90;;;;;;5037408;28;20328;-55
2022/10/19 08:03:34;;;;;;;5.90;3.10;;;12.40;99.90;;;;;;5044678;28;21122;-55
2022/10/19 08:06:23;;;;;;;4.17;2.63;;;12.60;99.90;;;;;;5040780;28;20604;-55
2022/10/19 08:08:51;;;;;;;4.40;3.23;;;12.90;99.90;;;;;;5049983;28;20201;-55
2022/10/19 08:11:27;;;;;;;6.17;3.13;;;13.10;99.90;;;;;;5037988;28;20228;-55
2022/10/19 08:13:57;;;;;;;5.23;3.17;;;13.60;99.90;;;;;;5040473;28;20196;-55
2022/10/19 08:16:43;;;;;;;3.50;2.83;;;13.70;99.90;;;;;;5037692;28;20211;-55
2022/10/19 08:19:12;;;;;;;3.47;2.70;;;13.90;99.90;;;;;;5037302;28;20298;-54
2022/10/19 08:21:42;;;;;;;7.13;2.90;;;14.10;99.90;;;;;;5042303;28;20271;-56
2022/10/19 08:24:11;;;;;;;4.87;3.00;;;14.30;99.90;;;;;;5040706;28;20196;-55
2022/10/19 08:26:38;;;;;;;5.70;3.60;;;14.70;99.90;;;;;;5038927;28;20216;-55
2022/10/19 08:29:18;;;;;;;5.93;2.37;;;14.60;99.90;;;;;;5044782;28;20219;-56
2022/10/19 08:31:46;;;;;;;4.70;2.37;;;15.00;99.90;;;;;;5038861;28;20214;-55
2022/10/19 08:34:14;;;;;;;12.17;4.23;;;15.00;99.90;;;;;;5039755;28;20197;-55
2022/10/19 08:36:41;;;;;;;4.73;2.57;;;15.20;99.90;;;;;;5038532;28;20227;-56
2022/10/19 08:39:13;;;;;;;3.30;1.90;;;14.90;99.90;;;;;;5047339;28;20207;-55
2022/10/19 08:41:40;;;;;;;2.77;2.00;;;15.20;99.90;;;;;;5039889;28;20677;-56
2022/10/19 08:44:21;;;;;;;4.73;2.40;;;14.70;99.90;;;;;;5037901;28;20340;-55
2022/10/19 08:47:13;;;;;;;4.03;2.43;;;14.80;99.90;;;;;;5038055;28;20200;-55
2022/10/19 08:49:45;;;;;;;4.17;2.20;;;15.20;99.90;;;;;;5038055;28;20198;-55
2022/10/19 08:52:19;;;;;;;6.53;2.10;;;15.60;99.90;;;;;;5046690;28;20258;-60
2022/10/19 08:54:55;;;;;;;5.33;2.10;;;14.90;99.90;;;;;;5039821;28;20879;-57
2022/10/19 08:57:44;;;;;;;3.63;2.07;;;15.50;99.90;;;;;;5039972;28;20784;-55
2022/10/19 09:00:21;;;;;;;8.43;2.10;;;15.80;99.90;;;;;;5051679;28;20202;-57
2022/10/19 09:03:01;;;;;;;6.13;1.97;;;15.70;99.90;;;;;;5043834;28;20206;-57
2022/10/19 09:05:47;;;;;;;7.83;2.60;;;15.60;99.90;;;;;;5044441;28;20874;-56
2022/10/19 09:08:15;;;;;;;2.47;1.50;;;15.30;99.90;;;;;;5044967;28;20566;-57
2022/10/19 09:10:47;;;;;;;3.47;1.93;;;15.60;99.90;;;;;;5044874;28;20225;-62
2022/10/19 09:13:34;;;;;;;3.57;1.77;;;15.80;99.90;;;;;;5042736;28;20199;-56
2022/10/19 09:16:22;;;;;;;6.63;1.67;;;15.80;99.90;;;;;;5048220;28;20223;-57
2022/10/19 09:18:49;;;;;;;3.67;1.50;;;15.90;99.90;;;;;;5049194;28;20227;-55
2022/10/19 09:21:25;;;;;;;2.53;1.30;;;15.80;99.90;;;;;;5048341;28;20673;-58
2022/10/19 09:24:31;;;;;;;1.97;1.40;;;15.70;99.90;;;;;;5058593;28;20652;-57
2022/10/19 09:27:00;;;;;;;3.80;1.87;;;15.70;99.90;;;;;;5047263;28;20293;-56
2022/10/19 09:29:46;;;;;;;3.43;1.30;;;15.90;99.90;;;;;;5040449;28;20288;-55
2022/10/19 09:32:23;;;;;;;2.07;1.47;;;15.80;99.90;;;;;;5047862;28;20491;-55
2022/10/19 09:34:53;;;;;;;4.37;1.63;;;15.60;99.90;;;;;;5047346;28;20197;-56
2022/10/19 09:37:21;;;;;;;5.93;1.53;;;15.40;99.90;;;;;;5048479;28;20203;-56
2022/10/19 09:39:53;;;;;;;2.67;1.30;;;15.30;99.90;;;;;;5051125;28;20296;-55
2022/10/19 09:42:32;;;;;;;3.70;1.30;;;15.20;99.90;;;;;;5047499;28;20587;-57
2022/10/19 09:45:12;;;;;;;4.40;1.80;;;15.30;99.90;;;;;;5048712;28;20265;-55
2022/10/19 09:47:41;;;;;;;4.77;1.60;;;15.30;99.90;;;;;;5047143;28;20205;-57
2022/10/19 09:50:22;;;;;;;4.20;1.70;;;15.40;99.90;;;;;;5045594;28;20281;-56
2022/10/19 09:52:50;;;;;;;3.27;1.27;;;15.20;99.90;;;;;;5048749;28;20201;-56
2022/10/19 09:55:37;;;;;;;4.37;1.47;;;15.20;99.90;;;;;;5048986;28;20210;-57
2022/10/19 09:58:11;;;;;;;2.93;1.27;;;15.30;99.90;;;;;;5047443;28;20239;-57
2022/10/19 10:00:41;;;;;;;4.20;1.50;;;14.90;99.90;;;;;;5044419;28;20195;-56
2022/10/19 10:03:28;;;;;;;4.93;1.77;;;14.80;99.90;;;;;;5048006;28;20200;-56
2022/10/19 10:05:58;;;;;;;2.80;1.30;;;14.90;99.90;;;;;;5045364;28;20209;-56
2022/10/19 10:08:32;;;;;;;4.70;1.37;;;15.20;99.90;;;;;;5044403;28;20315;-56
2022/10/19 10:11:07;;;;;;;2.70;1.03;;;15.40;99.90;;;;;;5051368;28;20233;-56
2022/10/19 10:13:40;;;;;;;3.30;1.20;;;15.30;99.90;;;;;;5046137;28;20211;-56
2022/10/19 10:16:10;;;;;;;2.73;1.20;;;15.40;99.90;;;;;;5044496;28;20214;-56
2022/10/19 10:18:49;;;;;;;4.40;1.27;;;15.40;99.90;;;;;;5049224;28;20716;-55
2022/10/19 10:21:20;;;;;;;4.23;1.80;;;15.50;99.90;;;;;;5043473;28;20219;-56
2022/10/19 10:24:19;;;;;;;3.10;1.10;;;15.60;99.90;;;;;;5043199;28;20443;-56
2022/10/19 10:26:52;;;;;;;2.80;1.40;;;15.60;99.90;;;;;;5038021;28;20709;-56
2022/10/19 10:29:23;;;;;;;5.47;1.33;;;15.20;99.90;;;;;;5044378;28;20209;-55
2022/10/19 10:31:54;;;;;;;6.43;1.50;;;15.40;99.90;;;;;;5053471;28;20206;-58
2022/10/19 10:34:36;;;;;;;6.87;1.60;;;15.30;99.90;;;;;;5046952;28;20200;-59
2022/10/19 10:37:28;;;;;;;5.00;1.90;;;15.00;99.90;;;;;;5039744;28;20291;-56
2022/10/19 10:39:57;;;;;;;4.07;1.60;;;15.20;99.90;;;;;;5039893;28;20610;-56
2022/10/19 10:42:35;;;;;;;3.90;1.67;;;15.30;99.90;;;;;;5047007;28;20214;-56
2022/10/19 10:45:03;;;;;;;8.10;1.63;;;15.30;99.90;;;;;;5044974;28;20198;-56
2022/10/19 10:47:30;;;;;;;4.77;1.50;;;15.30;99.90;;;;;;5041345;28;20604;-55
2022/10/19 10:50:02;;;;;;;3.87;1.30;;;15.20;99.90;;;;;;5045440;28;20197;-56
2022/10/19 10:52:30;;;;;;;3.70;1.30;;;15.20;99.90;;;;;;5045003;28;20207;-56
2022/10/19 10:55:01;;;;;;;3.07;1.30;;;15.40;99.90;;;;;;5042404;28;20199;-56
2022/10/19 10:57:36;;;;;;;8.33;1.67;;;15.30;99.90;;;;;;5043991;28;20227;-56
2022/10/19 11:00:11;;;;;;;5.57;2.00;;;15.60;99.90;;;;;;5034710;28;20239;-56
2022/10/19 11:03:06;;;;;;;4.83;1.50;;;15.30;99.90;;;;;;5036287;28;20218;-56
2022/10/19 11:05:39;;;;;;;5.10;1.57;;;15.30;99.90;;;;;;5043199;28;20230;-59
2022/10/19 11:08:11;;;;;;;3.23;1.57;;;15.50;99.90;;;;;;5044880;28;20190;-56
2022/10/19 11:11:17;;;;;;;3.60;1.40;;;15.60;99.90;;;;;;5045862;28;20229;-56
2022/10/19 11:13:59;;;;;;;3.20;1.27;;;15.70;99.90;;;;;;5033511;28;20224;-56
2022/10/19 11:16:37;;;;;;;4.77;1.10;;;15.60;99.90;;;;;;5040230;28;20764;-56
2022/10/19 11:19:17;;;;;;;4.87;1.50;;;15.40;99.90;;;;;;5049394;28;20194;-56
2022/10/19 11:21:50;;;;;;;5.37;2.03;;;15.40;99.90;;;;;;5046223;28;20243;-56
2022/10/19 11:24:25;;;;;;;4.67;1.80;;;15.80;99.90;;;;;;5052460;28;20617;-56
2022/10/19 11:27:04;;;;;;;2.93;1.47;;;15.80;99.90;;;;;;5047591;28;20199;-56
2022/10/19 11:29:31;;;;;;;4.50;1.80;;;15.70;99.90;;;;;;5047629;28;20287;-59
2022/10/19 11:31:58;;;;;;;3.03;1.47;;;15.80;99.90;;;;;;5046896;28;20685;-57
2022/10/19 11:34:51;;;;;;;5.63;2.10;;;15.90;99.90;;;;;;5047325;28;20221;-57
2022/10/19 11:37:38;;;;;;;3.10;1.70;;;16.10;99.90;;;;;;5045606;28;20666;-57
2022/10/19 11:40:32;;;;;;;5.10;1.67;;;16.00;99.90;;;;;;5046190;28;20211;-55
2022/10/19 11:43:11;;;;;;;3.93;1.70;;;16.30;99.90;;;;;;5047658;28;20728;-56
2022/10/19 11:46:01;;;;;;;4.47;1.77;;;16.50;99.90;;;;;;5041768;28;20686;-56
2022/10/19 11:48:50;;;;;;;5.53;1.43;;;17.10;99.90;;;;;;5040838;28;20199;-57
2022/10/19 11:51:26;;;;;;;3.87;1.20;;;17.50;99.90;;;;;;5045179;28;20229;-56
2022/10/19 11:53:56;;;;;;;2.50;1.40;;;17.30;99.90;;;;;;5051162;28;20288;-57
2022/10/19 11:56:53;;;;;;;5.37;1.60;;;17.20;99.90;;;;;;5054115;28;20218;-56
2022/10/19 11:59:39;;;;;;;4.30;1.63;;;17.20;99.90;;;;;;5047659;28;20329;-57
2022/10/19 12:02:18;;;;;;;3.37;1.50;;;17.80;99.90;;;;;;5036043;28;20215;-57
2022/10/19 12:05:00;;;;;;;4.40;1.23;;;17.80;99.90;;;;;;5044473;28;20928;-56
2022/10/19 12:08:00;;;;;;;4.47;1.17;;;18.40;99.90;;;;;;5040461;28;20619;-56
2022/10/19 12:11:05;;;;;;;3.63;1.27;;;18.30;99.90;;;;;;5052585;28;20586;-56
2022/10/19 12:13:51;;;;;;;5.53;1.50;;;18.60;99.90;;;;;;5052782;28;20218;-57
2022/10/19 12:16:19;;;;;;;5.37;1.53;;;18.70;99.90;;;;;;5051691;28;21044;-57
2022/10/19 12:18:59;;;;;;;4.10;1.43;;;18.80;99.90;;;;;;5050279;28;20196;-56
2022/10/19 12:21:34;;;;;;;4.70;1.73;;;18.60;99.90;;;;;;5051195;28;20215;-57
2022/10/19 12:24:05;;;;;;;4.70;1.37;;;18.60;99.90;;;;;;5051869;28;20277;-57
2022/10/19 12:26:35;;;;;;;5.90;1.43;;;19.30;99.90;;;;;;5047506;28;20200;-56
2022/10/19 12:29:12;;;;;;;4.07;1.60;;;19.50;99.90;;;;;;5026149;28;20207;-57
2022/10/19 12:31:40;;;;;;;2.87;1.40;;;19.00;99.90;;;;;;5043090;28;20318;-57
2022/10/19 12:34:31;;;;;;;5.70;1.67;;;19.00;99.90;;;;;;5051201;28;20204;-55
2022/10/19 12:37:16;;;;;;;4.30;1.60;;;18.90;99.90;;;;;;5051375;28;20681;-55
2022/10/19 12:40:07;;;;;;;6.60;1.40;;;18.70;99.90;;;;;;5051325;28;20505;-55
2022/10/19 12:43:23;;;;;;;2.73;1.57;;;18.70;99.90;;;;;;5051730;28;20218;-55
2022/10/19 12:46:12;;;;;;;6.13;1.70;;;18.60;99.90;;;;;;5047424;28;20205;-55
2022/10/19 12:48:39;;;;;;;3.20;1.50;;;18.90;99.90;;;;;;5049398;28;20215;-55
2022/10/19 12:51:11;;;;;;;4.07;1.60;;;19.00;99.90;;;;;;5047817;28;20653;-57
2022/10/19 12:53:49;;;;;;;4.20;1.33;;;19.10;99.90;;;;;;5048819;28;20216;-57
2022/10/19 12:56:25;;;;;;;4.07;1.40;;;19.20;99.90;;;;;;5044870;28;20208;-56
2022/10/19 12:59:00;;;;;;;3.03;1.17;;;18.90;99.90;;;;;;5047106;28;20690;-57
2022/10/19 13:01:32;;;;;;;5.27;1.37;;;18.50;99.90;;;;;;5048136;28;20211;-57
2022/10/19 13:04:12;;;;;;;4.47;1.60;;;18.40;99.90;;;;;;5048268;28;20217;-59
2022/10/19 13:06:43;;;;;;;2.53;1.70;;;18.30;99.90;;;;;;5048675;28;20301;-57
2022/10/19 13:09:22;;;;;;;4.17;1.43;;;18.10;99.90;;;;;;5049369;28;20285;-60
2022/10/19 13:12:22;;;;;;;5.67;1.50;;;18.20;99.90;;;;;;5048330;28;20213;-57
2022/10/19 13:14:51;;;;;;;4.57;1.40;;;17.80;99.90;;;;;;4997827;28;20226;-55
2022/10/19 13:17:33;;;;;;;4.07;1.30;;;17.50;99.90;;;;;;5047957;28;20209;-56